Terminal Aerodrome Forecast
Issued by NWS Charleston, WV

Current Version | Previous Version | Graphics & Text | Print | Product List | Glossary On
Versions: 1 2 3 4 5 6 7 8 9 10 11 12 13 14 15 16 17 18 19 20 21 22 23 24 25 26 27 28 29
000
FTUS41 KRLX 210200 AAA
TAFBKW
TAF AMD
KBKW 210224Z 2102/2124 VRB03KT P6SM BKN150
     FM210300 VRB03KT P6SM SCT150
     FM210600 VRB03KT 6SM BR BKN035
     FM211100 VRB03KT 3SM BR SCT070
     FM211300 24004KT 6SM BR BKN050
     FM211500 28005KT P6SM BKN035
     FM211700 28006KT P6SM VCTS BKN040CB
     FM211900 28007KT P6SM TSRA BKN035CB
     FM212300 28006KT P6SM VCTS BKN035CB=

USA.gov is the U.S. government's official web portal to all federal, state and local government web resources and services.